createdAt,value
2022-11-10T00:00:02.230Z,-34
2022-11-10T00:01:08.502Z,-34
2022-11-10T00:02:14.773Z,-34
2022-11-10T00:03:21.057Z,-33
2022-11-10T00:04:27.324Z,-34
2022-11-10T00:05:33.591Z,-33
2022-11-10T00:06:39.865Z,-35
2022-11-10T00:07:45.151Z,-34
2022-11-10T00:08:51.421Z,-34
2022-11-10T00:09:57.697Z,-32
2022-11-10T00:11:03.973Z,-37
2022-11-10T00:12:10.239Z,-34
2022-11-10T00:13:16.519Z,-34
2022-11-10T00:14:22.796Z,-33
2022-11-10T00:15:28.087Z,-35
2022-11-10T00:16:33.405Z,-34
2022-11-10T00:17:38.674Z,-34
2022-11-10T00:18:43.963Z,-34
2022-11-10T00:19:49.285Z,-34
2022-11-10T00:20:54.611Z,-34
2022-11-10T00:22:00.869Z,-32
2022-11-10T00:23:07.119Z,-34
2022-11-10T00:24:13.372Z,-34
2022-11-10T00:25:19.693Z,-34
2022-11-10T00:26:25.915Z,-32
2022-11-10T00:27:32.285Z,-33
2022-11-10T00:28:38.657Z,-34
2022-11-10T00:29:44.736Z,-34
2022-11-10T00:30:51.029Z,-34
2022-11-10T00:31:57.322Z,-34
2022-11-10T00:33:03.564Z,-37
2022-11-10T00:34:09.939Z,-34
2022-11-10T00:35:15.129Z,-34
2022-11-10T00:36:21.465Z,-34
2022-11-10T00:37:27.679Z,-34
2022-11-10T00:38:33.920Z,-34
2022-11-10T00:39:40.193Z,-34
2022-11-10T00:40:46.497Z,-34
2022-11-10T00:41:52.761Z,-36
2022-11-10T00:42:58.094Z,-34
2022-11-10T00:44:03.407Z,-34
2022-11-10T00:45:09.684Z,-34
2022-11-10T00:46:15.878Z,-34
2022-11-10T00:47:21.240Z,-35
2022-11-10T00:48:26.510Z,-34
2022-11-10T00:49:32.728Z,-34
2022-11-10T00:50:39.005Z,-35
2022-11-10T00:51:45.302Z,-34
2022-11-10T00:52:51.552Z,-34
2022-11-10T00:53:57.879Z,-34
2022-11-10T00:55:04.088Z,-34
2022-11-10T00:56:10.368Z,-35
2022-11-10T00:57:16.720Z,-34
2022-11-10T00:58:22.926Z,-34
2022-11-10T00:59:29.185Z,-35
2022-11-10T01:00:35.447Z,-34
2022-11-10T01:01:41.739Z,-35
2022-11-10T01:02:47.027Z,-34
2022-11-10T01:03:53.288Z,-34
2022-11-10T01:04:59.562Z,-33
2022-11-10T01:06:05.917Z,-35
2022-11-10T01:07:12.106Z,-34
2022-11-10T01:08:18.377Z,-35
2022-11-10T01:09:24.647Z,-35
2022-11-10T01:10:29.943Z,-34
2022-11-10T01:11:35.245Z,-35
2022-11-10T01:12:40.549Z,-34
2022-11-10T01:13:45.824Z,-35
2022-11-10T01:14:52.094Z,-34
2022-11-10T01:15:58.376Z,-35
2022-11-10T01:17:04.638Z,-35
2022-11-10T01:18:10.983Z,-34
2022-11-10T01:19:17.230Z,-36
2022-11-10T01:20:23.483Z,-35
2022-11-10T01:21:29.723Z,-35
2022-11-10T01:22:36.123Z,-34
2022-11-10T01:23:42.275Z,-36
2022-11-10T01:24:48.566Z,-35
2022-11-10T01:25:54.822Z,-35
2022-11-10T01:27:01.092Z,-35
2022-11-10T01:28:06.376Z,-37
2022-11-10T01:29:12.665Z,-34
2022-11-10T01:30:18.933Z,-35
2022-11-10T01:31:25.244Z,-34
2022-11-10T01:32:31.488Z,-35
2022-11-10T01:33:37.752Z,-35
2022-11-10T01:34:44.057Z,-35
2022-11-10T01:35:49.321Z,-34
2022-11-10T01:36:54.658Z,-35
2022-11-10T01:37:59.920Z,-36
2022-11-10T01:39:05.256Z,-37
2022-11-10T01:40:11.483Z,-35
2022-11-10T01:41:17.741Z,-35
2022-11-10T01:42:24.010Z,-35
2022-11-10T01:43:30.336Z,-35
2022-11-10T01:44:36.587Z,-35
2022-11-10T01:45:42.827Z,-34
2022-11-10T01:46:49.101Z,-35
2022-11-10T01:47:55.373Z,-36
2022-11-10T01:49:01.689Z,-36
2022-11-10T01:50:07.978Z,-35
2022-11-10T01:51:14.254Z,-34
2022-11-10T01:52:20.520Z,-36
2022-11-10T01:53:25.745Z,-36
2022-11-10T01:54:32.036Z,-35
2022-11-10T01:55:38.357Z,-36
2022-11-10T01:56:44.692Z,-35
2022-11-10T01:57:50.844Z,-37
2022-11-10T01:58:57.112Z,-35
2022-11-10T02:00:03.386Z,-36
2022-11-10T02:01:08.784Z,-35
2022-11-10T02:02:13.974Z,-36
2022-11-10T02:03:19.275Z,-36
2022-11-10T02:04:24.574Z,-37
2022-11-10T02:05:30.939Z,-35
2022-11-10T02:06:37.112Z,-35
2022-11-10T02:07:43.389Z,-35
2022-11-10T02:08:49.647Z,-36
2022-11-10T02:09:55.916Z,-35
2022-11-10T02:11:02.213Z,-35
2022-11-10T02:12:08.480Z,-35
2022-11-10T02:13:14.726Z,-37
2022-11-10T02:14:21.029Z,-35
2022-11-10T02:15:27.278Z,-36
2022-11-10T02:16:33.561Z,-37
2022-11-10T02:17:39.827Z,-35
2022-11-10T02:18:45.112Z,-35
2022-11-10T02:19:51.388Z,-36
2022-11-10T02:20:57.658Z,-35
2022-11-10T02:22:04.014Z,-37
2022-11-10T02:23:10.239Z,-37
2022-11-10T02:24:16.470Z,-35
2022-11-10T02:25:22.842Z,-37
2022-11-10T02:26:28.061Z,-36
2022-11-10T02:27:33.344Z,-36
2022-11-10T02:28:38.636Z,-37
2022-11-10T02:29:43.926Z,-34
2022-11-10T02:30:50.203Z,-36
2022-11-10T02:31:56.471Z,-35
2022-11-10T02:33:02.758Z,-36
2022-11-10T02:34:09.010Z,-35
2022-11-10T02:35:15.282Z,-36
2022-11-10T02:36:21.563Z,-37
2022-11-10T02:37:27.831Z,-38
2022-11-10T02:38:34.120Z,-34
2022-11-10T02:39:40.444Z,-37
2022-11-10T02:40:46.651Z,-37
2022-11-10T02:41:52.987Z,-36
2022-11-10T02:42:59.226Z,-37
2022-11-10T02:44:04.480Z,-37
2022-11-10T02:45:10.744Z,-37
2022-11-10T02:46:17.021Z,-37
2022-11-10T02:47:23.302Z,-37
2022-11-10T02:48:29.613Z,-36
2022-11-10T02:49:35.899Z,-37
2022-11-10T02:50:42.112Z,-38
2022-11-10T02:51:47.412Z,-38
2022-11-10T02:52:52.702Z,-37
2022-11-10T02:53:58.000Z,-38
2022-11-10T02:55:03.296Z,-38
2022-11-10T02:56:09.604Z,-37
2022-11-10T02:57:15.840Z,-39
2022-11-10T02:58:22.105Z,-35
2022-11-10T02:59:28.374Z,-37
2022-11-10T03:00:34.651Z,-37
2022-11-10T03:01:40.937Z,-37
2022-11-10T03:02:47.199Z,-38
2022-11-10T03:03:53.504Z,-37
2022-11-10T03:04:59.739Z,-38
2022-11-10T03:06:06.013Z,-37
2022-11-10T03:07:12.287Z,-38
2022-11-10T03:08:18.556Z,-38
2022-11-10T03:09:23.845Z,-37
2022-11-10T03:10:30.112Z,-37
2022-11-10T03:11:36.392Z,-36
2022-11-10T03:12:42.664Z,-37
2022-11-10T03:13:48.941Z,-37
2022-11-10T03:14:55.285Z,-38
2022-11-10T03:16:01.472Z,-37
2022-11-10T03:17:06.773Z,-37
2022-11-10T03:18:12.064Z,-37
2022-11-10T03:19:17.361Z,-38
2022-11-10T03:20:22.712Z,-37
2022-11-10T03:21:28.971Z,-37
2022-11-10T03:22:35.260Z,-37
2022-11-10T03:23:41.464Z,-37
2022-11-10T03:24:47.736Z,-38
2022-11-10T03:25:54.017Z,-38
2022-11-10T03:27:00.281Z,-37
2022-11-10T03:28:06.557Z,-37
2022-11-10T03:29:12.891Z,-37
2022-11-10T03:30:19.162Z,-37
2022-11-10T03:31:25.374Z,-37
2022-11-10T03:32:31.646Z,-38
2022-11-10T03:33:37.940Z,-37
2022-11-10T03:34:43.204Z,-39
2022-11-10T03:35:49.484Z,-37
2022-11-10T03:36:55.745Z,-37
2022-11-10T03:38:02.042Z,-37
2022-11-10T03:39:08.442Z,-38
2022-11-10T03:40:14.563Z,-37
2022-11-10T03:41:20.893Z,-37
2022-11-10T03:42:26.229Z,-37
2022-11-10T03:43:31.496Z,-38
2022-11-10T03:44:37.737Z,-39
2022-11-10T03:45:44.024Z,-38
2022-11-10T03:46:50.233Z,-39
2022-11-10T03:47:56.509Z,-38
2022-11-10T03:49:02.865Z,-38
2022-11-10T03:50:09.057Z,-39
2022-11-10T03:51:15.373Z,-37
2022-11-10T03:52:21.656Z,-39
2022-11-10T03:53:27.870Z,-38
2022-11-10T03:54:34.149Z,-39
2022-11-10T03:55:40.415Z,-39
2022-11-10T03:56:46.683Z,-39
2022-11-10T03:57:51.985Z,-38
2022-11-10T03:58:58.254Z,-38
2022-11-10T04:00:04.516Z,-37
2022-11-10T04:01:10.895Z,-38
2022-11-10T04:02:17.065Z,-40
2022-11-10T04:03:23.341Z,-39
2022-11-10T04:04:29.603Z,-39
2022-11-10T04:05:34.910Z,-39
2022-11-10T04:06:40.205Z,-39
2022-11-10T04:07:45.503Z,-40
2022-11-10T04:08:50.789Z,-39
2022-11-10T04:09:57.128Z,-40
2022-11-10T04:11:03.363Z,-39
2022-11-10T04:12:09.615Z,-39
2022-11-10T04:13:15.869Z,-38
2022-11-10T04:14:22.165Z,-42
2022-11-10T04:15:28.420Z,-38
2022-11-10T04:16:34.736Z,-39
2022-11-10T04:17:40.984Z,-39
2022-11-10T04:18:47.229Z,-40
2022-11-10T04:19:53.503Z,-40
2022-11-10T04:20:59.777Z,-39
2022-11-10T04:22:06.061Z,-40
2022-11-10T04:23:11.330Z,-38
2022-11-10T04:24:17.608Z,-40
2022-11-10T04:25:23.883Z,-40
2022-11-10T04:26:30.207Z,-38
2022-11-10T04:27:36.424Z,-37
2022-11-10T04:28:42.697Z,-39
2022-11-10T04:29:48.972Z,-39
2022-11-10T04:30:54.270Z,-40
2022-11-10T04:31:59.558Z,-39
2022-11-10T04:33:04.921Z,-37
2022-11-10T04:34:10.144Z,-39
2022-11-10T04:35:16.474Z,-39
2022-11-10T04:36:21.714Z,-40
2022-11-10T04:37:27.002Z,-40
2022-11-10T04:38:33.291Z,-39
2022-11-10T04:39:39.592Z,-40
2022-11-10T04:40:45.822Z,-39
2022-11-10T04:41:52.096Z,-40
2022-11-10T04:42:58.381Z,-40
2022-11-10T04:44:04.762Z,-38
2022-11-10T04:45:10.916Z,-39
2022-11-10T04:46:17.186Z,-34
2022-11-10T04:47:23.455Z,-40
2022-11-10T04:48:29.736Z,-41
2022-11-10T04:49:36.015Z,-39
2022-11-10T04:50:42.284Z,-40
2022-11-10T04:51:47.558Z,-40
2022-11-10T04:52:53.826Z,-40
2022-11-10T04:54:00.098Z,-42
2022-11-10T04:55:06.375Z,-40
2022-11-10T04:56:12.650Z,-42
2022-11-10T04:57:18.911Z,-40
2022-11-10T04:58:25.215Z,-40
2022-11-10T04:59:30.507Z,-41
2022-11-10T05:00:35.776Z,-40
2022-11-10T05:01:42.072Z,-40
2022-11-10T05:02:48.323Z,-42
2022-11-10T05:03:54.780Z,-40
2022-11-10T05:05:00.908Z,-41
2022-11-10T05:06:07.175Z,-42
2022-11-10T05:07:13.409Z,-40
2022-11-10T05:08:19.719Z,-42
2022-11-10T05:09:24.974Z,-37
2022-11-10T05:10:31.247Z,-41
2022-11-10T05:11:37.522Z,-42
2022-11-10T05:12:43.798Z,-40
2022-11-10T05:13:50.158Z,-41
2022-11-10T05:14:56.340Z,-41
2022-11-10T05:16:02.617Z,-41
2022-11-10T05:17:08.884Z,-41
2022-11-10T05:18:15.154Z,-43
2022-11-10T05:19:21.428Z,-42
2022-11-10T05:20:27.702Z,-40
2022-11-10T05:21:33.973Z,-41
2022-11-10T05:22:39.271Z,-42
2022-11-10T05:23:44.561Z,-41
2022-11-10T05:24:49.852Z,-43
2022-11-10T05:25:55.147Z,-42
2022-11-10T05:27:01.420Z,-43
2022-11-10T05:28:07.688Z,-42
2022-11-10T05:29:13.962Z,-42
2022-11-10T05:30:20.236Z,-42
2022-11-10T05:31:26.505Z,-43
2022-11-10T05:32:32.799Z,-37
2022-11-10T05:33:39.064Z,-42
2022-11-10T05:34:45.325Z,-41
2022-11-10T05:35:51.592Z,-43
2022-11-10T05:36:57.864Z,-43
2022-11-10T05:38:04.137Z,-43
2022-11-10T05:39:10.437Z,-43
2022-11-10T05:40:15.757Z,-43
2022-11-10T05:41:21.976Z,-43
2022-11-10T05:42:28.243Z,-43
2022-11-10T05:43:34.514Z,-44
2022-11-10T05:44:40.794Z,-43
2022-11-10T05:45:47.063Z,-44
2022-11-10T05:46:53.339Z,-43
2022-11-10T05:47:58.633Z,-44
2022-11-10T05:49:03.914Z,-44
2022-11-10T05:50:09.221Z,-43
2022-11-10T05:51:14.504Z,-43
2022-11-10T05:52:20.776Z,-43
2022-11-10T05:53:27.071Z,-43
2022-11-10T05:54:33.326Z,-44
2022-11-10T05:55:39.597Z,-40
2022-11-10T05:56:45.884Z,-43
2022-11-10T05:57:52.141Z,-44
2022-11-10T05:58:58.441Z,-44
2022-11-10T06:00:04.693Z,-44
2022-11-10T06:01:10.959Z,-44
2022-11-10T06:02:17.224Z,-44
2022-11-10T06:03:23.495Z,-44
2022-11-10T06:04:29.771Z,-45
2022-11-10T06:05:35.073Z,-45
2022-11-10T06:06:41.335Z,-44
2022-11-10T06:07:47.623Z,-44
2022-11-10T06:08:53.973Z,-46
2022-11-10T06:10:00.152Z,-45
2022-11-10T06:11:06.421Z,-46
2022-11-10T06:12:12.691Z,-45
2022-11-10T06:13:18.002Z,-45
2022-11-10T06:14:23.284Z,-46
2022-11-10T06:15:28.581Z,-46
2022-11-10T06:16:33.884Z,-45
2022-11-10T06:17:40.138Z,-46
2022-11-10T06:18:46.418Z,-45
2022-11-10T06:19:52.702Z,-45
2022-11-10T06:20:58.962Z,-46
2022-11-10T06:22:05.234Z,-46
2022-11-10T06:23:11.520Z,-45
2022-11-10T06:24:17.780Z,-46
2022-11-10T06:25:24.061Z,-47
2022-11-10T06:26:30.315Z,-47
2022-11-10T06:27:36.645Z,-47
2022-11-10T06:28:42.862Z,-46
2022-11-10T06:29:49.146Z,-46
2022-11-10T06:30:54.420Z,-44
2022-11-10T06:32:00.698Z,-47
2022-11-10T06:33:06.971Z,-46
2022-11-10T06:34:13.241Z,-46
2022-11-10T06:35:19.595Z,-46
2022-11-10T06:36:25.790Z,-46
2022-11-10T06:37:32.062Z,-46
2022-11-10T06:38:37.367Z,-46
2022-11-10T06:39:42.651Z,-46
2022-11-10T06:40:47.942Z,-47
2022-11-10T06:41:53.317Z,-46
2022-11-10T06:42:59.518Z,-46
2022-11-10T06:44:05.837Z,-46
2022-11-10T06:45:12.052Z,-46
2022-11-10T06:46:18.319Z,-46
2022-11-10T06:47:24.669Z,-47
2022-11-10T06:48:30.894Z,-46
2022-11-10T06:49:37.142Z,-47
2022-11-10T06:50:43.477Z,-48
2022-11-10T06:51:49.715Z,-47
2022-11-10T06:52:55.953Z,-46
2022-11-10T06:54:02.232Z,-46
2022-11-10T06:55:08.496Z,-47
2022-11-10T06:56:13.816Z,-48
2022-11-10T06:57:20.053Z,-46
2022-11-10T06:58:26.382Z,-45
2022-11-10T06:59:32.624Z,-48
2022-11-10T07:00:38.913Z,-47
2022-11-10T07:01:45.174Z,-48
2022-11-10T07:02:51.451Z,-46
2022-11-10T07:03:57.693Z,-47
2022-11-10T07:05:03.071Z,-48
2022-11-10T07:06:08.338Z,-49
2022-11-10T07:07:14.568Z,-47
2022-11-10T07:08:20.821Z,-48
2022-11-10T07:09:27.095Z,-49
2022-11-10T07:10:33.365Z,-48
2022-11-10T07:11:39.647Z,-48
2022-11-10T07:12:45.955Z,-46
2022-11-10T07:13:52.177Z,-49
2022-11-10T07:14:58.456Z,-48
2022-11-10T07:16:04.721Z,-47
2022-11-10T07:17:11.018Z,-47
2022-11-10T07:18:17.269Z,-47
2022-11-10T07:19:23.547Z,-48
2022-11-10T07:20:28.843Z,-49
2022-11-10T07:21:35.183Z,-48
2022-11-10T07:22:41.460Z,-49
2022-11-10T07:23:47.679Z,-50
2022-11-10T07:24:54.039Z,-50
2022-11-10T07:26:00.189Z,-48
2022-11-10T07:27:06.488Z,-49
2022-11-10T07:28:11.802Z,-48
2022-11-10T07:29:17.093Z,-47
2022-11-10T07:30:22.367Z,-48
2022-11-10T07:31:27.641Z,-48
2022-11-10T07:32:34.046Z,-49
2022-11-10T07:33:39.249Z,-48
2022-11-10T07:34:44.552Z,-47
2022-11-10T07:35:50.800Z,-48
2022-11-10T07:36:57.035Z,-50
2022-11-10T07:38:03.310Z,-48
2022-11-10T07:39:09.594Z,-49
2022-11-10T07:40:15.852Z,-49
2022-11-10T07:41:22.171Z,-49
2022-11-10T07:42:28.407Z,-50
2022-11-10T07:43:34.674Z,-49
2022-11-10T07:44:41.017Z,-48
2022-11-10T07:45:47.237Z,-49
2022-11-10T07:46:53.485Z,-48
2022-11-10T07:47:59.767Z,-48
2022-11-10T07:49:05.050Z,-48
2022-11-10T07:50:11.326Z,-50
2022-11-10T07:51:17.587Z,-48
2022-11-10T07:52:23.869Z,-48
2022-11-10T07:53:30.149Z,-48
2022-11-10T07:54:36.457Z,-50
2022-11-10T07:55:42.682Z,-47
2022-11-10T07:56:48.045Z,-48
2022-11-10T07:57:53.366Z,-49
2022-11-10T07:58:58.575Z,-50
2022-11-10T08:00:03.996Z,-50
2022-11-10T08:01:10.153Z,-50
2022-11-10T08:02:16.517Z,-49
2022-11-10T08:03:22.696Z,-49
2022-11-10T08:04:29.048Z,-48
2022-11-10T08:05:35.297Z,-48
2022-11-10T08:06:41.512Z,-47
2022-11-10T08:07:47.765Z,-49
2022-11-10T08:08:54.183Z,-50
2022-11-10T08:10:00.431Z,-48
2022-11-10T08:11:06.664Z,-49
2022-11-10T08:12:12.856Z,-49
2022-11-10T08:13:19.275Z,-50
2022-11-10T08:14:24.511Z,-49
2022-11-10T08:15:30.683Z,-48
2022-11-10T08:16:36.961Z,-50
2022-11-10T08:17:43.227Z,-49
2022-11-10T08:18:49.499Z,-50
2022-11-10T08:19:55.771Z,-48
2022-11-10T08:21:02.171Z,-50
2022-11-10T08:22:07.405Z,-50
2022-11-10T08:23:12.637Z,-50
2022-11-10T08:24:18.070Z,-50
2022-11-10T08:25:23.233Z,-49
2022-11-10T08:26:29.544Z,-50
2022-11-10T08:27:35.767Z,-48
2022-11-10T08:28:42.147Z,-48
2022-11-10T08:29:48.337Z,-48
2022-11-10T08:30:54.621Z,-50
2022-11-10T08:32:00.962Z,-50
2022-11-10T08:33:07.172Z,-48
2022-11-10T08:34:13.501Z,-49
2022-11-10T08:35:19.709Z,-50
2022-11-10T08:36:26.033Z,-44
2022-11-10T08:37:32.342Z,-48
2022-11-10T08:38:38.522Z,-50
2022-11-10T08:39:43.854Z,-49
2022-11-10T08:40:50.157Z,-48
2022-11-10T08:41:56.465Z,-49
2022-11-10T08:43:02.625Z,-48
2022-11-10T08:44:08.912Z,-49
2022-11-10T08:45:15.177Z,-48
2022-11-10T08:46:21.454Z,-48
2022-11-10T08:47:26.734Z,-50
2022-11-10T08:48:32.133Z,-49
2022-11-10T08:49:37.322Z,-48
2022-11-10T08:50:42.586Z,-48
2022-11-10T08:51:48.885Z,-49
2022-11-10T08:52:55.160Z,-50
2022-11-10T08:54:01.399Z,-48
2022-11-10T08:55:07.716Z,-49
2022-11-10T08:56:13.978Z,-48
2022-11-10T08:57:20.273Z,-48
2022-11-10T08:58:26.504Z,-49
2022-11-10T08:59:32.768Z,-49
2022-11-10T09:00:39.037Z,-49
2022-11-10T09:01:45.311Z,-49
2022-11-10T09:02:51.642Z,-50
2022-11-10T09:03:57.846Z,-48
2022-11-10T09:05:03.171Z,-48
2022-11-10T09:06:09.413Z,-50
2022-11-10T09:07:15.773Z,-50
2022-11-10T09:08:21.957Z,-49
2022-11-10T09:09:28.220Z,-49
2022-11-10T09:10:34.525Z,-50
2022-11-10T09:11:40.770Z,-49
2022-11-10T09:12:46.077Z,-49
2022-11-10T09:13:51.362Z,-49
2022-11-10T09:14:56.758Z,-49
2022-11-10T09:16:02.030Z,-48
2022-11-10T09:17:08.347Z,-49
2022-11-10T09:18:14.561Z,-50
2022-11-10T09:19:20.761Z,-48
2022-11-10T09:20:27.033Z,-52
2022-11-10T09:21:33.385Z,-49
2022-11-10T09:22:39.708Z,-48
2022-11-10T09:23:45.849Z,-46
2022-11-10T09:24:52.147Z,-48
2022-11-10T09:25:58.404Z,-46
2022-11-10T09:27:04.658Z,-49
2022-11-10T09:28:10.940Z,-50
2022-11-10T09:29:17.209Z,-48
2022-11-10T09:30:22.503Z,-49
2022-11-10T09:31:28.889Z,-48
2022-11-10T09:32:35.083Z,-47
2022-11-10T09:33:41.341Z,-47
2022-11-10T09:34:47.583Z,-50
2022-11-10T09:35:53.860Z,-48
2022-11-10T09:37:00.132Z,-48
2022-11-10T09:38:06.413Z,-47
2022-11-10T09:39:11.702Z,-48
2022-11-10T09:40:17.121Z,-48
2022-11-10T09:41:23.260Z,-47
2022-11-10T09:42:28.657Z,-47
2022-11-10T09:43:33.927Z,-44
2022-11-10T09:44:40.135Z,-48
2022-11-10T09:45:46.395Z,-48
2022-11-10T09:46:52.748Z,-49
2022-11-10T09:47:58.943Z,-46
2022-11-10T09:49:05.260Z,-49
2022-11-10T09:50:11.510Z,-47
2022-11-10T09:51:17.782Z,-48
2022-11-10T09:52:24.026Z,-48
2022-11-10T09:53:30.389Z,-46
2022-11-10T09:54:36.571Z,-47
2022-11-10T09:55:42.868Z,-46
2022-11-10T09:56:49.196Z,-46
2022-11-10T09:57:54.510Z,-46
2022-11-10T09:59:00.680Z,-46
2022-11-10T10:00:06.944Z,-46
2022-11-10T10:01:13.393Z,-46
2022-11-10T10:02:19.496Z,-46
2022-11-10T10:03:25.882Z,-46
2022-11-10T10:04:32.041Z,-45
2022-11-10T10:05:37.385Z,-46
2022-11-10T10:06:42.626Z,-46
2022-11-10T10:07:47.936Z,-47
2022-11-10T10:08:53.279Z,-46
2022-11-10T10:09:59.557Z,-46
2022-11-10T10:11:05.755Z,-45
2022-11-10T10:12:12.023Z,-46
2022-11-10T10:13:18.296Z,-46
2022-11-10T10:14:24.696Z,-46
2022-11-10T10:15:30.842Z,-47
2022-11-10T10:16:37.204Z,-46
2022-11-10T10:17:43.380Z,-46
2022-11-10T10:18:49.658Z,-45
2022-11-10T10:19:55.922Z,-47
2022-11-10T10:21:02.223Z,-44
2022-11-10T10:22:08.502Z,-45
2022-11-10T10:23:13.789Z,-46
2022-11-10T10:24:20.061Z,-45
2022-11-10T10:25:26.333Z,-45
2022-11-10T10:26:32.581Z,-44
2022-11-10T10:27:38.939Z,-45
2022-11-10T10:28:45.117Z,-43
2022-11-10T10:29:51.424Z,-45
2022-11-10T10:30:56.694Z,-45
2022-11-10T10:32:01.993Z,-44
2022-11-10T10:33:07.303Z,-45
2022-11-10T10:34:12.595Z,-44
2022-11-10T10:35:18.838Z,-45
2022-11-10T10:36:25.227Z,-44
2022-11-10T10:37:31.422Z,-43
2022-11-10T10:38:37.662Z,-44
2022-11-10T10:39:43.937Z,-43
2022-11-10T10:40:50.201Z,-44
2022-11-10T10:41:56.477Z,-45
2022-11-10T10:43:02.775Z,-43
2022-11-10T10:44:09.036Z,-43
2022-11-10T10:45:15.286Z,-43
2022-11-10T10:46:21.560Z,-43
2022-11-10T10:47:27.837Z,-43
2022-11-10T10:48:33.129Z,-43
2022-11-10T10:49:39.403Z,-43
2022-11-10T10:50:45.665Z,-43
2022-11-10T10:51:51.941Z,-43
2022-11-10T10:52:58.328Z,-43
2022-11-10T10:54:04.568Z,-43
2022-11-10T10:55:10.842Z,-43
2022-11-10T10:56:16.197Z,-42
2022-11-10T10:57:21.348Z,-41
2022-11-10T10:58:27.757Z,-42
2022-11-10T10:59:34.124Z,-41
2022-11-10T11:00:40.154Z,-41
2022-11-10T11:01:46.487Z,-42
2022-11-10T11:02:52.711Z,-41
2022-11-10T11:03:58.977Z,-40
2022-11-10T11:05:05.252Z,-40
2022-11-10T11:06:11.636Z,-42
2022-11-10T11:07:17.793Z,-41
2022-11-10T11:08:24.074Z,-41
2022-11-10T11:09:30.424Z,-40
2022-11-10T11:10:36.687Z,-40
2022-11-10T11:11:42.119Z,-43
2022-11-10T11:12:48.171Z,-40
2022-11-10T11:13:54.470Z,-40
2022-11-10T11:15:00.831Z,-40
2022-11-10T11:16:07.109Z,-40
2022-11-10T11:17:13.250Z,-40
2022-11-10T11:18:19.536Z,-40
2022-11-10T11:19:24.826Z,-40
2022-11-10T11:20:30.128Z,-40
2022-11-10T11:21:35.428Z,-40
2022-11-10T11:22:40.699Z,-40
2022-11-10T11:23:46.008Z,-40
2022-11-10T11:24:52.278Z,-40
2022-11-10T11:25:57.564Z,-40
2022-11-10T11:27:03.872Z,-40
2022-11-10T11:28:10.174Z,-40
2022-11-10T11:29:16.392Z,-40
2022-11-10T11:30:22.735Z,-43
2022-11-10T11:31:29.019Z,-40
2022-11-10T11:32:35.193Z,-42
2022-11-10T11:33:41.579Z,-41
2022-11-10T11:34:47.754Z,-40
2022-11-10T11:35:54.004Z,-40
2022-11-10T11:37:00.359Z,-40
2022-11-10T11:38:06.550Z,-40
2022-11-10T11:39:12.832Z,-40
2022-11-10T11:40:18.157Z,-40
2022-11-10T11:41:24.389Z,-40
2022-11-10T11:42:30.734Z,-41
2022-11-10T11:43:36.929Z,-41
2022-11-10T11:44:43.211Z,-40
2022-11-10T11:45:49.477Z,-40
2022-11-10T11:46:54.772Z,-41
2022-11-10T11:48:00.143Z,-40
2022-11-10T11:49:06.335Z,-40
2022-11-10T11:50:12.616Z,-40
2022-11-10T11:51:18.877Z,-40
2022-11-10T11:52:25.148Z,-41
2022-11-10T11:53:31.558Z,-43
2022-11-10T11:54:37.691Z,-40
2022-11-10T11:55:44.030Z,-40
2022-11-10T11:56:50.259Z,-40
2022-11-10T11:57:56.506Z,-40
2022-11-10T11:59:02.853Z,-40
2022-11-10T12:00:09.118Z,-40
2022-11-10T12:01:15.352Z,-40
2022-11-10T12:02:20.646Z,-40
2022-11-10T12:03:26.927Z,-40
2022-11-10T12:04:33.186Z,-40
2022-11-10T12:05:39.427Z,-41
2022-11-10T12:06:45.699Z,-40
2022-11-10T12:07:51.976Z,-40
2022-11-10T12:08:58.279Z,-40
2022-11-10T12:10:03.627Z,-40
2022-11-10T12:11:08.910Z,-40
2022-11-10T12:12:14.143Z,-40
2022-11-10T12:13:19.464Z,-40
2022-11-10T12:14:25.732Z,-39
2022-11-10T12:15:31.980Z,-39
2022-11-10T12:16:38.328Z,-39
2022-11-10T12:17:44.516Z,-38
2022-11-10T12:18:50.836Z,-38
2022-11-10T12:19:57.127Z,-38
2022-11-10T12:21:03.468Z,-38
2022-11-10T12:22:09.597Z,-37
2022-11-10T12:23:15.867Z,-38
2022-11-10T12:24:22.135Z,-38
2022-11-10T12:25:28.408Z,-37
2022-11-10T12:26:34.693Z,-37
2022-11-10T12:27:40.968Z,-37
2022-11-10T12:28:46.251Z,-37
2022-11-10T12:29:52.520Z,-35
2022-11-10T12:30:58.931Z,-37
2022-11-10T12:32:04.137Z,-36
2022-11-10T12:33:10.359Z,-35
2022-11-10T12:34:16.626Z,-37
2022-11-10T12:35:21.922Z,-36
2022-11-10T12:36:27.271Z,-34
2022-11-10T12:37:32.525Z,-37
2022-11-10T12:38:37.800Z,-37
2022-11-10T12:39:44.073Z,-37
2022-11-10T12:40:50.391Z,-37
2022-11-10T12:41:56.746Z,-36
2022-11-10T12:43:02.952Z,-37
2022-11-10T12:44:09.163Z,-37
2022-11-10T12:45:15.421Z,-36
2022-11-10T12:46:21.705Z,-38
2022-11-10T12:47:27.999Z,-37
2022-11-10T12:48:34.258Z,-37
2022-11-10T12:49:40.532Z,-37
2022-11-10T12:50:46.799Z,-37
2022-11-10T12:51:53.098Z,-37
2022-11-10T12:52:58.348Z,-37
2022-11-10T12:54:04.620Z,-37
2022-11-10T12:55:10.893Z,-37
2022-11-10T12:56:17.165Z,-37
2022-11-10T12:57:23.435Z,-37
2022-11-10T12:58:29.803Z,-38
2022-11-10T12:59:36.006Z,-37
2022-11-10T13:00:41.358Z,-37
2022-11-10T13:01:46.598Z,-38
2022-11-10T13:02:52.836Z,-37
2022-11-10T13:03:59.140Z,-35
2022-11-10T13:05:05.422Z,-38
2022-11-10T13:06:11.728Z,-37
2022-11-10T13:07:17.938Z,-37
2022-11-10T13:08:24.214Z,-37
2022-11-10T13:09:30.559Z,-37
2022-11-10T13:10:36.818Z,-38
2022-11-10T13:11:43.098Z,-37
2022-11-10T13:12:49.296Z,-37
2022-11-10T13:13:55.611Z,-37
2022-11-10T13:15:01.833Z,-38
2022-11-10T13:16:07.134Z,-37
2022-11-10T13:17:13.510Z,-37
2022-11-10T13:18:19.658Z,-36
2022-11-10T13:19:25.937Z,-39
2022-11-10T13:20:32.207Z,-37
2022-11-10T13:21:38.663Z,-40
2022-11-10T13:22:44.860Z,-37
2022-11-10T13:23:50.056Z,-38
2022-11-10T13:24:55.339Z,-37
2022-11-10T13:26:00.637Z,-37
2022-11-10T13:27:05.954Z,-36
2022-11-10T13:28:12.228Z,-37
2022-11-10T13:29:18.472Z,-38
2022-11-10T13:30:24.752Z,-38
2022-11-10T13:31:31.017Z,-39
2022-11-10T13:32:37.376Z,-37
2022-11-10T13:33:43.585Z,-37
2022-11-10T13:34:49.859Z,-38
2022-11-10T13:35:56.225Z,-39
2022-11-10T13:37:02.419Z,-38
2022-11-10T13:38:08.730Z,-38
2022-11-10T13:39:14.923Z,-38
2022-11-10T13:40:21.191Z,-36
2022-11-10T13:41:26.601Z,-38
2022-11-10T13:42:32.775Z,-38
2022-11-10T13:43:39.130Z,-38
2022-11-10T13:44:45.403Z,-38
2022-11-10T13:45:51.734Z,-38
2022-11-10T13:46:57.911Z,-39
2022-11-10T13:48:04.220Z,-37
2022-11-10T13:49:09.413Z,-37
2022-11-10T13:50:14.810Z,-37
2022-11-10T13:51:20.017Z,-40
2022-11-10T13:52:25.284Z,-39
2022-11-10T13:53:31.564Z,-39
2022-11-10T13:54:37.830Z,-38
2022-11-10T13:55:44.126Z,-37
2022-11-10T13:56:50.415Z,-38
2022-11-10T13:57:56.704Z,-38
2022-11-10T13:59:02.917Z,-38
2022-11-10T14:00:09.247Z,-39
2022-11-10T14:01:15.465Z,-38
2022-11-10T14:02:21.735Z,-39
2022-11-10T14:03:28.038Z,-38
2022-11-10T14:04:34.272Z,-39
2022-11-10T14:05:40.580Z,-38
2022-11-10T14:06:45.836Z,-39
2022-11-10T14:07:52.113Z,-40
2022-11-10T14:08:58.578Z,-37
2022-11-10T14:10:04.733Z,-38
2022-11-10T14:11:10.980Z,-38
2022-11-10T14:12:17.228Z,-40
2022-11-10T14:13:23.489Z,-39
2022-11-10T14:14:28.778Z,-38
2022-11-10T14:15:34.060Z,-40
2022-11-10T14:16:40.342Z,-39
2022-11-10T14:17:46.607Z,-40
2022-11-10T14:18:52.878Z,-39
2022-11-10T14:19:59.208Z,-39
2022-11-10T14:21:05.415Z,-39
2022-11-10T14:22:11.692Z,-40
2022-11-10T14:23:18.027Z,-38
2022-11-10T14:24:24.270Z,-40
2022-11-10T14:25:30.510Z,-39
2022-11-10T14:26:36.855Z,-38
2022-11-10T14:27:43.064Z,-38
2022-11-10T14:28:49.393Z,-39
2022-11-10T14:29:54.617Z,-40
2022-11-10T14:31:00.910Z,-40
2022-11-10T14:32:07.212Z,-40
2022-11-10T14:33:13.426Z,-40
2022-11-10T14:34:19.704Z,-34
2022-11-10T14:35:26.042Z,-39
2022-11-10T14:36:32.262Z,-40
2022-11-10T14:37:37.549Z,-39
2022-11-10T14:38:42.853Z,-40
2022-11-10T14:39:48.135Z,-39
2022-11-10T14:40:53.418Z,-39
2022-11-10T14:41:59.697Z,-41
2022-11-10T14:43:06.030Z,-40
2022-11-10T14:44:12.385Z,-40
2022-11-10T14:45:18.506Z,-40
2022-11-10T14:46:24.783Z,-40
2022-11-10T14:47:31.089Z,-40
2022-11-10T14:48:37.330Z,-40
2022-11-10T14:49:43.606Z,-41
2022-11-10T14:50:49.871Z,-40
2022-11-10T14:51:56.143Z,-40
2022-11-10T14:53:02.461Z,-40
2022-11-10T14:54:08.685Z,-40
2022-11-10T14:55:14.026Z,-40
2022-11-10T14:56:20.279Z,-41
2022-11-10T14:57:26.557Z,-40
2022-11-10T14:58:32.841Z,-41
2022-11-10T14:59:39.105Z,-40
2022-11-10T15:00:45.338Z,-41
2022-11-10T15:01:51.604Z,-40
2022-11-10T15:02:56.943Z,-41
2022-11-10T15:04:02.212Z,-42
2022-11-10T15:05:07.498Z,-41
2022-11-10T15:06:12.826Z,-41
2022-11-10T15:07:18.119Z,-42
2022-11-10T15:08:23.373Z,-42
2022-11-10T15:09:29.704Z,-41